Startpagina
METAR-TAF:

METAR-TAF

Vliegvelden :

Aeropuerto Antonio Nariño

Pasto, Colombia

breedte: 01-25N, lengte: 077-16W, hoogte: 1826 m

Actueel weer

Dit bericht is 8 uur en het 44 minuten geleden gemaakt, om 23:00 UTC
Wind 4 kt uit het noordnoordoosten
Temperatuur 18°C
Vochtigheid 88%
Druk 1019 hPa
Zicht 10 km of meer
Verspreide wolken op 2000 ft
Verspreide wolken op 8000 ft

METAR: SKPS 202300Z 03004KT 9999 SCT020 SCT080 18/16 A3010

Tijdstip: 02:44 (07:44 UTC)


TAF: ontbreekt

Waarnemingen en weersverwachtingen van meer dan 4000 vliegvelden (METAR en TAF).

De beschikbare stations zijn de gele en rode punten op de kaart.

Ga met uw muis naar het station om de naam te zien.

Klik dan om waarnemingen en weersverwachtingen te zien.

kaart wijzigen: klik op de groene knoppen met een zwart kruis om in te zoomen, op de groene knop met een streepje om uit te zoomen of op de groene pijlen voor aangrenzende kaarten.


METAR-TAF: